Time;durP1;ratioP1;P1;durP2;ratioP2;P2;SDS_P1;SDS_P2;PMS_P1;PMS_P2;Temp;Humidity;BMP_temperature;BMP_pressure;BME280_temperature;BME280_humidity;BME280_pressure;Samples;Min_cycle;Max_cycle;Signal;HPM_P1;HPM_P2
2022/10/28 00:01:08;;;;;;;10.90;6.18;;;;;;;20.10;58.36;101657.03;5072252;28;20044;-67
2022/10/28 00:03:40;;;;;;;10.65;6.63;;;;;;;20.06;58.37;101658.31;5072198;28;20102;-68
2022/10/28 00:06:15;;;;;;;11.35;6.63;;;;;;;20.04;58.38;101652.13;5072433;28;20114;-68
2022/10/28 00:08:43;;;;;;;14.48;7.40;;;;;;;20.00;58.43;101653.44;5053968;28;20110;-68
2022/10/28 00:11:12;;;;;;;15.82;7.07;;;;;;;19.94;58.58;101649.47;5052453;28;20113;-68
2022/10/28 00:13:40;;;;;;;14.50;7.65;;;;;;;19.90;58.61;101650.75;5058340;28;20048;-69
2022/10/28 00:16:15;;;;;;;16.70;7.05;;;;;;;19.86;58.71;101654.81;5074027;28;20041;-68
2022/10/28 00:18:42;;;;;;;14.43;8.02;;;;;;;19.86;58.72;101656.66;5070063;28;20051;-68
2022/10/28 00:21:12;;;;;;;14.98;7.50;;;;;;;19.82;58.60;101653.38;5071243;28;20075;-67
2022/10/28 00:23:39;;;;;;;13.88;6.95;;;;;;;19.81;58.80;101657.13;5071096;28;20040;-68
2022/10/28 00:26:20;;;;;;;12.68;7.28;;;;;;;19.79;58.83;101658.28;5050513;28;20407;-67
2022/10/28 00:28:52;;;;;;;13.57;6.95;;;;;;;19.77;58.53;101657.56;5035433;28;20045;-68
2022/10/28 00:31:21;;;;;;;15.07;8.00;;;;;;;19.73;58.69;101654.28;5035074;28;20053;-68
2022/10/28 00:33:48;;;;;;;18.60;7.30;;;;;;;19.71;58.69;101656.28;5035031;28;20042;-68
2022/10/28 00:36:19;;;;;;;12.65;6.75;;;;;;;19.67;59.05;101663.03;5046084;28;20102;-67
2022/10/28 00:38:47;;;;;;;12.15;7.38;;;;;;;19.65;58.81;101646.00;5044193;28;20091;-68
2022/10/28 00:41:36;;;;;;;11.23;7.07;;;;;;;19.63;58.66;101661.63;5035183;28;20095;-68
2022/10/28 00:44:42;;;;;;;13.40;6.95;;;;;;;19.60;59.15;101648.28;5035809;28;20084;-68
2022/10/28 00:47:51;;;;;;;13.00;6.88;;;;;;;19.59;58.83;101652.88;5055039;28;20045;-68
2022/10/28 00:50:41;;;;;;;13.32;7.97;;;;;;;19.57;59.10;101649.44;5057277;28;20483;-68
2022/10/28 00:53:20;;;;;;;10.05;7.13;;;;;;;19.56;58.88;101649.59;5056411;28;20037;-68
2022/10/28 00:55:48;;;;;;;16.63;7.47;;;;;;;19.52;59.27;101651.75;5056988;28;20052;-67
2022/10/28 00:58:17;;;;;;;15.68;7.50;;;;;;;19.51;59.05;101641.84;5057344;28;20041;-67
2022/10/28 01:00:44;;;;;;;13.15;7.20;;;;;;;19.50;59.09;101642.00;5056753;28;20060;-68
2022/10/28 01:03:11;;;;;;;15.07;7.75;;;;;;;19.48;59.25;101641.28;5058058;28;20403;-67
2022/10/28 01:05:40;;;;;;;13.82;7.80;;;;;;;19.48;59.26;101633.09;5056639;28;20396;-68
2022/10/28 01:08:08;;;;;;;16.10;7.97;;;;;;;19.47;58.98;101632.25;5049427;28;20446;-68
2022/10/28 01:10:39;;;;;;;16.00;8.15;;;;;;;19.45;58.97;101628.81;5034515;28;20492;-69
2022/10/28 01:13:06;;;;;;;9.85;6.82;;;;;;;19.42;59.21;101610.03;5034434;28;20049;-68
2022/10/28 01:15:58;;;;;;;12.65;8.07;;;;;;;19.38;59.08;101611.34;5034843;28;20057;-67
2022/10/28 01:18:46;;;;;;;15.35;8.30;;;;;;;19.34;59.42;101610.78;5034771;28;20046;-67
2022/10/28 01:21:31;;;;;;;17.83;8.13;;;;;;;19.29;59.38;101609.47;5033459;28;20049;-67
2022/10/28 01:23:57;;;;;;;12.63;8.13;;;;;;;19.26;59.15;101609.75;5036443;28;20168;-68
2022/10/28 01:26:45;;;;;;;13.43;7.85;;;;;;;19.22;59.34;101605.63;5055165;28;20045;-69
2022/10/28 01:29:41;;;;;;;11.82;8.35;;;;;;;19.19;59.60;101601.31;5054716;28;20044;-68
2022/10/28 01:32:34;;;;;;;15.43;8.18;;;;;;;19.16;59.68;101593.44;5054432;28;20049;-69
2022/10/28 01:35:42;;;;;;;15.05;7.82;;;;;;;19.16;59.48;101595.31;5061311;28;20036;-69
2022/10/28 01:38:40;;;;;;;13.77;8.07;;;;;;;19.17;59.54;101591.56;5006695;28;20036;-68
2022/10/28 01:41:27;;;;;;;16.27;7.85;;;;;;;19.16;59.79;101598.03;5036145;28;20577;-69
2022/10/28 01:44:25;;;;;;;13.77;8.50;;;;;;;19.14;59.60;101597.31;5054028;28;20040;-68
2022/10/28 01:47:01;;;;;;;16.88;7.80;;;;;;;19.14;59.71;101603.63;5059002;28;20036;-69
2022/10/28 01:49:39;;;;;;;13.27;7.35;;;;;;;19.12;59.71;101602.03;5063826;28;20057;-69
2022/10/28 01:52:11;;;;;;;13.75;7.15;;;;;;;19.12;59.90;101599.31;5053639;28;20107;-69
2022/10/28 01:54:43;;;;;;;14.75;7.53;;;;;;;19.11;59.75;101593.03;5054326;28;20090;-70
2022/10/28 01:57:13;;;;;;;12.35;7.15;;;;;;;19.11;59.99;101597.59;5054058;28;20466;-67
2022/10/28 01:59:42;;;;;;;12.18;7.13;;;;;;;19.08;59.75;101587.88;5053975;28;20033;-68
2022/10/28 02:02:08;;;;;;;10.27;6.40;;;;;;;19.09;59.83;101588.72;5054344;28;20045;-68
2022/10/28 02:04:35;;;;;;;13.20;7.35;;;;;;;19.08;59.96;101593.31;5055624;28;20102;-68
2022/10/28 02:07:03;;;;;;;14.77;7.85;;;;;;;19.09;60.15;101594.19;5055092;28;20102;-68
2022/10/28 02:09:58;;;;;;;14.93;7.55;;;;;;;19.09;59.95;101595.03;5055485;28;20557;-69
2022/10/28 02:12:34;;;;;;;10.02;6.90;;;;;;;19.10;59.90;101590.44;5055395;28;20067;-68
2022/10/28 02:15:13;;;;;;;11.68;7.40;;;;;;;19.09;60.03;101588.72;5056428;28;20033;-67
2022/10/28 02:17:57;;;;;;;15.38;7.38;;;;;;;19.09;60.14;101596.91;5055361;28;20053;-68
2022/10/28 02:20:32;;;;;;;13.02;7.05;;;;;;;19.08;59.94;101597.91;5055994;28;20067;-67
2022/10/28 02:23:30;;;;;;;13.38;7.20;;;;;;;19.07;60.11;101591.59;5058658;28;20067;-67
2022/10/28 02:26:12;;;;;;;15.23;7.10;;;;;;;19.09;59.76;101589.59;5054918;28;20506;-67
2022/10/28 02:29:11;;;;;;;12.85;6.57;;;;;;;19.08;59.82;101581.56;5053578;28;20098;-68
2022/10/28 02:31:49;;;;;;;12.73;7.30;;;;;;;19.09;59.82;101595.03;5048132;28;20579;-68
2022/10/28 02:34:32;;;;;;;14.90;7.07;;;;;;;19.09;59.89;101588.72;5053972;28;20372;-68
2022/10/28 02:37:05;;;;;;;12.25;7.53;;;;;;;19.09;59.99;101589.59;5036619;28;20102;-68
2022/10/28 02:39:38;;;;;;;18.58;7.47;;;;;;;19.08;59.89;101590.59;5070148;28;20094;-68
2022/10/28 02:42:13;;;;;;;15.02;6.90;;;;;;;19.05;59.98;101585.44;5073808;28;20040;-68
2022/10/28 02:44:47;;;;;;;13.30;6.90;;;;;;;19.02;59.84;101583.88;5070568;28;20090;-67
2022/10/28 02:47:19;;;;;;;17.17;7.40;;;;;;;18.99;59.83;101586.88;5053772;28;20091;-67
2022/10/28 02:49:51;;;;;;;14.35;6.97;;;;;;;18.96;59.69;101576.28;5053229;28;20116;-67
2022/10/28 02:52:21;;;;;;;12.77;6.90;;;;;;;18.93;59.65;101578.44;5053532;28;20037;-67
2022/10/28 02:54:55;;;;;;;13.40;6.63;;;;;;;18.92;60.06;101576.72;5056627;28;20040;-67
2022/10/28 02:57:28;;;;;;;11.52;6.55;;;;;;;18.91;60.13;101575.88;5073103;28;20456;-67
2022/10/28 02:59:57;;;;;;;13.20;6.85;;;;;;;18.92;60.20;101558.53;5073397;28;20098;-68
2022/10/28 03:02:24;;;;;;;14.20;6.80;;;;;;;18.93;59.97;101564.81;5073055;28;20091;-68
2022/10/28 03:04:53;;;;;;;12.25;6.22;;;;;;;18.94;59.72;101563.81;5073948;28;20040;-68
2022/10/28 03:07:19;;;;;;;12.68;6.85;;;;;;;18.94;60.07;101570.13;5065311;28;20041;-68
2022/10/28 03:09:46;;;;;;;12.80;6.80;;;;;;;18.93;60.10;101568.41;5054686;28;20116;-68
2022/10/28 03:12:13;;;;;;;13.13;6.70;;;;;;;18.91;59.83;101566.84;5053859;28;20044;-67
2022/10/28 03:14:44;;;;;;;11.20;6.50;;;;;;;18.89;60.01;101569.69;5055929;28;20094;-67
2022/10/28 03:17:10;;;;;;;17.55;7.00;;;;;;;18.86;59.75;101571.84;5074274;28;20045;-68
2022/10/28 03:19:37;;;;;;;12.00;7.03;;;;;;;18.79;59.98;101568.84;5072896;28;20033;-68
2022/10/28 03:22:04;;;;;;;13.32;6.85;;;;;;;18.75;59.63;101569.28;5074643;28;20061;-68
2022/10/28 03:24:31;;;;;;;14.25;6.90;;;;;;;18.73;59.83;101569.44;5076190;28;20048;-68
2022/10/28 03:26:58;;;;;;;13.32;6.97;;;;;;;18.71;59.68;101574.16;5053146;28;20503;-68
2022/10/28 03:29:25;;;;;;;12.27;6.32;;;;;;;18.69;59.86;101565.28;5053283;28;20048;-68
2022/10/28 03:31:51;;;;;;;14.57;6.75;;;;;;;18.66;60.16;101563.72;5052971;28;20052;-67
2022/10/28 03:34:19;;;;;;;11.35;6.90;;;;;;;18.63;60.02;101569.44;5053767;28;20045;-68
2022/10/28 03:36:46;;;;;;;11.60;6.90;;;;;;;18.61;59.93;101562.41;5052806;28;20099;-67
2022/10/28 03:39:13;;;;;;;11.93;6.47;;;;;;;18.58;60.04;101563.53;5052846;28;20025;-67
2022/10/28 03:41:39;;;;;;;13.35;6.85;;;;;;;18.56;60.30;101553.78;5052946;28;20045;-68
2022/10/28 03:44:10;;;;;;;12.98;7.20;;;;;;;18.56;59.90;101559.22;5052803;28;20041;-68
2022/10/28 03:46:37;;;;;;;15.95;6.82;;;;;;;18.56;60.14;101561.94;5052686;28;20446;-68
2022/10/28 03:49:03;;;;;;;10.85;6.18;;;;;;;18.56;60.13;101560.06;5052724;28;20052;-67
2022/10/28 03:51:30;;;;;;;11.10;6.55;;;;;;;18.55;59.95;101563.78;5052520;28;20040;-69
2022/10/28 03:53:56;;;;;;;11.93;6.07;;;;;;;18.57;60.16;101560.94;5052422;28;20491;-67
2022/10/28 03:56:24;;;;;;;11.38;6.07;;;;;;;18.56;60.24;101561.94;5072188;28;20033;-68
2022/10/28 03:58:51;;;;;;;12.45;6.57;;;;;;;18.54;60.03;101555.78;5072666;28;20094;-67
2022/10/28 04:01:22;;;;;;;12.65;6.35;;;;;;;18.54;60.19;101558.50;5072329;28;20040;-68
2022/10/28 04:03:49;;;;;;;15.20;5.95;;;;;;;18.51;59.88;101561.50;5054710;28;20068;-67
2022/10/28 04:06:17;;;;;;;11.98;6.25;;;;;;;18.50;59.75;101562.50;5071498;28;20063;-68
2022/10/28 04:08:44;;;;;;;13.57;6.18;;;;;;;18.48;59.71;101559.94;5072758;28;20098;-67
2022/10/28 04:11:10;;;;;;;9.60;5.68;;;;;;;18.46;59.90;101556.50;5072544;28;20429;-68
2022/10/28 04:13:37;;;;;;;11.52;6.00;;;;;;;18.43;59.88;101549.47;5072917;28;20109;-68
2022/10/28 04:16:08;;;;;;;10.38;6.20;;;;;;;18.40;59.93;101552.47;5055645;28;20491;-68
2022/10/28 04:18:34;;;;;;;12.25;6.32;;;;;;;18.42;59.83;101555.06;5052549;28;20110;-68
2022/10/28 04:21:02;;;;;;;10.50;6.22;;;;;;;18.40;59.98;101555.19;5052214;28;20106;-67
2022/10/28 04:23:28;;;;;;;11.48;6.20;;;;;;;18.37;60.04;101554.63;5052360;28;20045;-68
2022/10/28 04:25:56;;;;;;;12.13;5.63;;;;;;;18.33;59.97;101551.34;5052902;28;20049;-67
2022/10/28 04:28:23;;;;;;;12.00;5.80;;;;;;;18.34;60.07;101554.91;5052616;28;20049;-68
2022/10/28 04:30:49;;;;;;;11.15;5.15;;;;;;;18.36;59.89;101558.34;5052663;28;20503;-68
2022/10/28 04:33:16;;;;;;;12.73;5.75;;;;;;;18.35;59.83;101560.22;5051194;28;20052;-68
2022/10/28 04:35:44;;;;;;;8.75;5.57;;;;;;;18.33;59.64;101562.22;5065544;28;20058;-68
2022/10/28 04:38:14;;;;;;;11.90;5.97;;;;;;;18.28;59.56;101567.22;5072080;28;20066;-68
2022/10/28 04:40:40;;;;;;;15.43;5.50;;;;;;;18.26;59.78;101568.34;5072451;28;20143;-68
2022/10/28 04:43:07;;;;;;;11.57;5.72;;;;;;;18.24;59.58;101567.63;5073243;28;20071;-68
2022/10/28 04:45:38;;;;;;;12.95;6.40;;;;;;;18.21;59.79;101568.78;5074004;28;20418;-68
2022/10/28 04:48:05;;;;;;;12.93;6.45;;;;;;;18.16;60.18;101562.91;5060263;28;20052;-68
2022/10/28 04:50:32;;;;;;;13.35;6.88;;;;;;;18.13;60.16;101565.91;5051675;28;20053;-68
2022/10/28 04:52:58;;;;;;;12.80;5.80;;;;;;;18.15;60.22;101569.34;5064933;28;20044;-68
2022/10/28 04:55:29;;;;;;;14.27;5.68;;;;;;;18.17;60.26;101561.91;5072146;28;20045;-68
2022/10/28 04:57:57;;;;;;;9.52;5.97;;;;;;;18.23;60.29;101561.34;5071527;28;20048;-67
2022/10/28 05:00:26;;;;;;;10.75;6.32;;;;;;;18.26;60.11;101563.78;5071612;28;20110;-68
2022/10/28 05:02:53;;;;;;;14.60;6.57;;;;;;;18.28;60.52;101558.19;5053188;28;20461;-68
2022/10/28 05:05:21;;;;;;;13.65;6.28;;;;;;;18.29;60.56;101565.34;5053877;28;20041;-67
2022/10/28 05:07:47;;;;;;;11.05;5.60;;;;;;;18.29;60.37;101558.06;5069521;28;20083;-67
2022/10/28 05:10:16;;;;;;;16.08;6.57;;;;;;;18.28;60.23;101559.06;5051489;28;20045;-67
2022/10/28 05:12:46;;;;;;;14.13;6.13;;;;;;;18.30;60.26;101561.63;5051523;28;20551;-68
2022/10/28 05:15:18;;;;;;;14.45;6.53;;;;;;;18.32;60.48;101562.34;5055141;28;20753;-68
2022/10/28 05:17:46;;;;;;;13.02;5.63;;;;;;;18.33;60.31;101547.75;5055798;28;20045;-68
2022/10/28 05:20:15;;;;;;;12.02;6.45;;;;;;;18.36;60.36;101558.34;5037299;28;20410;-67
2022/10/28 05:22:52;;;;;;;15.32;6.32;;;;;;;18.38;60.44;101557.22;5055059;28;20553;-67
2022/10/28 05:25:24;;;;;;;11.88;6.00;;;;;;;18.39;60.15;101558.91;5055624;28;20047;-67
2022/10/28 05:27:50;;;;;;;16.70;6.28;;;;;;;18.39;60.43;101558.91;5056740;28;20442;-67
2022/10/28 05:30:18;;;;;;;10.60;5.28;;;;;;;18.40;60.26;101551.63;5075509;28;20098;-67
2022/10/28 05:32:44;;;;;;;12.40;5.85;;;;;;;18.40;60.66;101551.63;5075059;28;20074;-67
2022/10/28 05:35:15;;;;;;;12.02;5.72;;;;;;;18.41;60.67;101551.47;5074713;28;20040;-67
2022/10/28 05:37:42;;;;;;;12.35;5.15;;;;;;;18.45;60.26;101545.75;5072815;28;20494;-67
2022/10/28 05:40:10;;;;;;;10.95;5.35;;;;;;;18.45;60.16;101545.75;5053917;28;20044;-68
2022/10/28 05:42:43;;;;;;;11.10;6.00;;;;;;;18.46;60.43;101550.19;5053625;28;20495;-68
2022/10/28 05:45:12;;;;;;;11.75;5.53;;;;;;;18.46;60.53;101548.34;5054016;28;20041;-68
2022/10/28 05:47:48;;;;;;;10.68;5.28;;;;;;;18.48;60.29;101540.03;5066851;28;20376;-68
2022/10/28 05:50:15;;;;;;;;;;;;;;;18.50;60.34;101543.47;5077319;28;20112;-68
2022/10/28 05:52:46;;;;;;;12.98;6.30;;;;;;;18.52;60.01;101536.03;5055360;28;19927;-67
2022/10/28 05:55:14;;;;;;;14.35;5.90;;;;;;;18.50;60.25;101538.03;5036541;28;20041;-68
2022/10/28 05:57:40;;;;;;;11.35;5.65;;;;;;;18.46;60.31;101539.31;5053751;28;20045;-68
2022/10/28 06:00:08;;;;;;;10.93;5.13;;;;;;;18.41;60.39;101546.03;5060724;28;20056;-67
2022/10/28 06:02:41;;;;;;;16.27;5.90;;;;;;;18.38;60.27;101543.59;5073900;28;20076;-67
2022/10/28 06:05:10;;;;;;;10.93;6.75;;;;;;;18.39;60.20;101555.34;5074670;28;20049;-67
2022/10/28 06:07:38;;;;;;;12.07;5.80;;;;;;;18.40;60.38;101551.63;5075608;28;20045;-64
2022/10/28 06:10:07;;;;;;;13.18;6.35;;;;;;;18.39;60.35;101564.38;5074086;28;20518;-65
2022/10/28 06:12:34;;;;;;;10.25;5.78;;;;;;;18.40;60.08;101551.63;5075910;28;20070;-66
2022/10/28 06:15:06;;;;;;;9.18;5.57;;;;;;;18.39;60.55;101556.19;5076325;28;20045;-66
2022/10/28 06:17:32;;;;;;;11.65;5.93;;;;;;;18.40;60.52;101555.19;5076915;28;20040;-67
2022/10/28 06:19:59;;;;;;;13.25;6.05;;;;;;;18.42;60.24;101549.63;5063265;28;20436;-67
2022/10/28 06:22:25;;;;;;;10.70;5.75;;;;;;;18.42;60.57;101552.34;5058938;28;20064;-67
2022/10/28 06:24:53;;;;;;;13.57;5.57;;;;;;;18.43;60.25;101563.06;5057126;28;20048;-67
2022/10/28 06:27:20;;;;;;;12.65;6.10;;;;;;;18.43;60.36;101549.47;5055629;28;20110;-67
2022/10/28 06:29:46;;;;;;;11.23;5.35;;;;;;;18.44;60.19;101553.06;5053619;28;20041;-67
2022/10/28 06:32:13;;;;;;;11.60;5.78;;;;;;;18.43;60.51;101552.19;5054544;28;20099;-67
2022/10/28 06:34:40;;;;;;;17.50;5.72;;;;;;;18.45;60.38;101556.63;5054054;28;20033;-67
2022/10/28 06:37:09;;;;;;;9.57;6.07;;;;;;;18.43;60.45;101565.78;5053298;28;20048;-67
2022/10/28 06:39:37;;;;;;;13.93;5.88;;;;;;;18.42;60.46;101560.50;5054023;28;20041;-67
2022/10/28 06:42:03;;;;;;;13.13;5.88;;;;;;;18.43;60.26;101562.22;5070967;28;20040;-66
2022/10/28 06:44:31;;;;;;;9.98;5.68;;;;;;;18.42;60.39;101569.53;5071081;28;20052;-67
2022/10/28 06:46:58;;;;;;;14.05;5.97;;;;;;;18.41;60.25;101565.06;5072675;28;20098;-66
2022/10/28 06:49:24;;;;;;;16.33;5.75;;;;;;;18.41;60.60;101570.50;5060693;28;20082;-66
2022/10/28 06:51:51;;;;;;;13.48;5.95;;;;;;;18.43;60.27;101573.97;5052005;28;20056;-66
2022/10/28 06:54:22;;;;;;;10.70;5.10;;;;;;;18.46;60.69;101574.66;5051946;28;20106;-66
2022/10/28 06:56:48;;;;;;;10.30;5.57;;;;;;;18.48;60.64;101578.09;5050317;28;20604;-66
2022/10/28 06:59:15;;;;;;;9.10;5.45;;;;;;;18.50;60.93;101570.66;5050368;28;20045;-66
2022/10/28 07:01:41;;;;;;;13.65;6.03;;;;;;;18.55;60.62;101566.50;5050067;28;20605;-66
2022/10/28 07:04:12;;;;;;;15.60;6.22;;;;;;;18.58;60.94;101562.66;5050488;28;20037;-67
2022/10/28 07:06:39;;;;;;;11.85;5.70;;;;;;;18.63;60.94;101557.69;5050582;28;20045;-67
2022/10/28 07:09:06;;;;;;;16.00;6.55;;;;;;;18.66;60.93;101555.53;5050573;28;20049;-67
2022/10/28 07:11:33;;;;;;;11.60;6.22;;;;;;;18.71;60.75;101563.28;5051634;28;20098;-66
2022/10/28 07:14:16;;;;;;;13.60;6.72;;;;;;;18.76;61.00;101566.44;5052243;28;20106;-66
2022/10/28 07:16:42;;;;;;;13.82;6.95;;;;;;;18.81;61.00;101560.53;5052876;28;20025;-66
2022/10/28 07:19:09;;;;;;;14.20;6.72;;;;;;;18.86;61.04;101571.84;5043952;28;20045;-67
2022/10/28 07:21:35;;;;;;;16.13;6.65;;;;;;;18.90;61.06;101565.13;5071909;28;20572;-68
2022/10/28 07:24:12;;;;;;;12.43;6.07;;;;;;;18.94;60.91;101566.53;5072443;28;20044;-68
2022/10/28 07:26:41;;;;;;;16.73;7.30;;;;;;;18.99;60.77;101572.41;5068396;28;20483;-68
2022/10/28 07:29:07;;;;;;;11.10;6.60;;;;;;;19.03;60.83;101574.69;5052171;28;20434;-67
2022/10/28 07:31:34;;;;;;;14.65;6.68;;;;;;;19.10;60.83;101576.84;5052122;28;20091;-67
2022/10/28 07:34:08;;;;;;;13.10;6.90;;;;;;;19.15;60.75;101569.09;5056838;28;20040;-67
2022/10/28 07:36:35;;;;;;;13.90;6.40;;;;;;;19.21;61.07;101563.03;5071342;28;20037;-67
2022/10/28 07:39:01;;;;;;;15.10;7.15;;;;;;;19.27;60.86;101562.44;5070788;28;20471;-67
2022/10/28 07:41:28;;;;;;;9.98;6.13;;;;;;;19.33;60.77;101562.75;5070936;28;20494;-67
2022/10/28 07:43:54;;;;;;;13.13;6.85;;;;;;;19.41;61.27;101564.72;5071015;28;20041;-67
2022/10/28 07:46:23;;;;;;;14.35;6.53;;;;;;;19.48;60.89;101573.16;5070382;28;20483;-67
2022/10/28 07:48:49;;;;;;;20.42;6.40;;;;;;;19.57;60.97;101578.59;5070224;28;20102;-67
2022/10/28 07:51:16;;;;;;;14.85;6.80;;;;;;;19.63;61.29;101574.44;5070351;28;20074;-67
2022/10/28 07:53:42;;;;;;;11.13;6.30;;;;;;;19.72;61.26;101584.44;5070017;28;20040;-67
2022/10/28 07:56:14;;;;;;;13.18;6.00;;;;;;;19.80;61.05;101587.25;5070191;28;20534;-67
2022/10/28 07:58:42;;;;;;;14.98;6.72;;;;;;;19.89;60.96;101582.75;5070305;28;20036;-67
2022/10/28 08:01:11;;;;;;;13.00;6.47;;;;;;;19.98;60.94;101584.56;5071247;28;20098;-67
2022/10/28 08:03:38;;;;;;;13.32;6.10;;;;;;;20.10;61.14;101577.94;5071134;28;20074;-67
2022/10/28 08:06:11;;;;;;;15.43;6.68;;;;;;;20.22;61.37;101573.13;5053332;28;20072;-67
2022/10/28 08:08:38;;;;;;;10.88;6.18;;;;;;;20.34;60.67;101568.31;5071361;28;20502;-69
2022/10/28 08:11:12;;;;;;;15.38;6.78;;;;;;;20.43;60.80;101564.66;5063537;28;20398;-69
2022/10/28 08:13:39;;;;;;;17.67;6.85;;;;;;;20.54;61.25;101559.84;5057118;28;20076;-68
2022/10/28 08:16:07;;;;;;;13.85;5.50;;;;;;;20.65;60.95;101561.47;5051231;28;20051;-68
2022/10/28 08:18:34;;;;;;;14.30;5.57;;;;;;;20.74;60.59;101563.25;5051318;28;20057;-68
2022/10/28 08:21:03;;;;;;;11.38;5.75;;;;;;;20.85;60.48;101559.44;5052307;28;20099;-69
2022/10/28 08:23:29;;;;;;;10.77;5.78;;;;;;;20.94;60.42;101561.22;5064320;28;20086;-69
2022/10/28 08:25:57;;;;;;;13.80;5.90;;;;;;;21.06;60.62;101572.75;5071218;28;20048;-67
2022/10/28 08:28:23;;;;;;;8.80;5.60;;;;;;;21.19;60.16;101570.44;5071131;28;20489;-67
2022/10/28 08:30:50;;;;;;;11.70;5.43;;;;;;;21.33;60.32;101566.31;5071215;28;20044;-68
2022/10/28 08:33:38;;;;;;;13.02;6.35;;;;;;;21.50;60.30;101576.31;5065484;28;20045;-67
2022/10/28 08:36:06;;;;;;;11.43;5.43;;;;;;;21.66;59.80;101578.28;5071079;28;20102;-68
2022/10/28 08:38:32;;;;;;;10.18;5.18;;;;;;;21.83;59.78;101588.28;5064855;28;20041;-67
2022/10/28 08:41:17;;;;;;;16.73;5.63;;;;;;;21.94;59.75;101585.25;5029633;28;20053;-68
2022/10/28 08:44:23;;;;;;;13.02;5.40;;;;;;;22.09;59.34;101586.38;5030956;28;20506;-67
2022/10/28 08:47:14;;;;;;;12.02;5.72;;;;;;;22.26;59.31;101570.00;5030967;28;20054;-67
2022/10/28 08:49:42;;;;;;;10.82;5.03;;;;;;;22.37;59.09;101573.31;5034993;28;20104;-67
2022/10/28 08:52:31;;;;;;;10.68;5.03;;;;;;;22.47;58.64;101575.88;5034929;28;20434;-67
2022/10/28 08:55:12;;;;;;;11.75;4.75;;;;;;;22.54;58.30;101576.06;5035101;28;20041;-67
2022/10/28 08:58:00;;;;;;;13.85;5.53;;;;;;;22.59;58.26;101581.88;5035087;28;20107;-67
2022/10/28 09:00:31;;;;;;;12.88;5.15;;;;;;;22.64;58.15;101572.13;5049678;28;20056;-67
2022/10/28 09:03:06;;;;;;;12.45;4.70;;;;;;;22.69;57.79;101572.47;5054581;28;20446;-68
2022/10/28 09:05:39;;;;;;;12.27;4.72;;;;;;;22.78;57.74;101576.06;5054821;28;20037;-68
2022/10/28 09:08:19;;;;;;;11.10;4.35;;;;;;;22.86;57.86;101567.03;5052180;28;20045;-68
2022/10/28 09:11:04;;;;;;;13.35;4.57;;;;;;;22.96;57.63;101564.97;5034936;28;20045;-68
2022/10/28 09:13:49;;;;;;;10.55;4.85;;;;;;;23.12;57.38;101578.69;5034579;28;20061;-68
2022/10/28 09:16:45;;;;;;;12.88;4.10;;;;;;;23.25;57.39;101565.31;5034678;28;20045;-67
2022/10/28 09:19:22;;;;;;;;;;;;;;;23.39;57.36;101571.97;5036630;28;20099;-68
2022/10/28 09:22:21;;;;;;;9.77;4.57;;;;;;;23.54;57.03;101580.31;5044462;28;19921;-68
2022/10/28 09:25:29;;;;;;;11.35;5.13;;;;;;;23.62;56.73;101583.06;5043970;28;20057;-68
2022/10/28 09:28:31;;;;;;;12.32;4.90;;;;;;;23.64;56.58;101579.13;5034437;28;20042;-67
2022/10/28 09:31:09;;;;;;;11.23;5.15;;;;;;;23.66;56.42;101581.69;5035363;28;20061;-67
2022/10/28 09:33:42;;;;;;;7.07;4.72;;;;;;;23.66;56.08;101582.53;5034119;28;20115;-68
2022/10/28 09:36:17;;;;;;;12.45;5.28;;;;;;;23.66;55.95;101590.75;5034368;28;20091;-68
2022/10/28 09:38:44;;;;;;;;;;;;;;;23.69;56.04;101589.56;5035050;28;20049;-69
2022/10/28 09:41:18;;;;;;;12.77;4.95;;;;;;;23.75;55.79;101594.34;5045147;28;19970;-68
2022/10/28 09:43:53;;;;;;;14.52;5.13;;;;;;;23.79;55.80;101600.34;5053779;28;20434;-68
2022/10/28 09:46:22;;;;;;;12.40;5.38;;;;;;;23.87;55.90;101595.69;5054441;28;20045;-68
2022/10/28 09:48:54;;;;;;;13.65;5.45;;;;;;;23.99;55.88;101593.41;5062995;28;20037;-69
2022/10/28 09:51:51;;;;;;;43.05;7.78;;;;;;;24.13;55.91;101592.66;5073778;28;20044;-69
2022/10/28 09:54:28;;;;;;;21.30;6.03;;;;;;;24.29;55.42;101589.84;5074127;28;20445;-69
2022/10/28 09:56:55;;;;;;;15.02;5.65;;;;;;;24.40;55.59;101600.41;5069361;28;20098;-68
2022/10/28 09:59:21;;;;;;;11.90;5.35;;;;;;;24.48;55.33;101601.41;5062226;28;20552;-67
2022/10/28 10:01:48;;;;;;;18.10;6.00;;;;;;;24.52;54.89;101597.25;5074206;28;20048;-69
2022/10/28 10:04:22;;;;;;;17.80;6.18;;;;;;;24.53;54.85;101596.25;5057053;28;20048;-68
2022/10/28 10:06:53;;;;;;;15.95;5.20;;;;;;;24.55;54.51;101592.28;5054060;28;20095;-67
2022/10/28 10:09:24;;;;;;;11.55;4.97;;;;;;;24.58;54.75;101593.81;5060735;28;20048;-70
2022/10/28 10:11:55;;;;;;;11.35;5.18;;;;;;;24.61;54.50;101602.53;5035798;28;20083;-67
2022/10/28 10:14:29;;;;;;;12.15;5.20;;;;;;;24.68;54.51;101592.53;5053754;28;20045;-68
2022/10/28 10:17:04;;;;;;;14.05;5.65;;;;;;;24.78;54.48;101597.78;5036287;28;20047;-67
2022/10/28 10:19:55;;;;;;;12.38;5.30;;;;;;;24.87;54.28;101596.66;5053787;28;20510;-68
2022/10/28 10:22:32;;;;;;;17.23;5.47;;;;;;;24.97;54.37;101596.41;5057954;28;20051;-67
2022/10/28 10:24:59;;;;;;;14.48;5.03;;;;;;;25.06;54.07;101594.47;5074703;28;20041;-67
2022/10/28 10:27:29;;;;;;;15.10;5.93;;;;;;;25.16;54.13;101592.31;5074874;28;20048;-67
2022/10/28 10:30:18;;;;;;;16.70;5.35;;;;;;;25.27;53.72;101586.41;5074860;28;20090;-67
2022/10/28 10:32:46;;;;;;;14.05;5.30;;;;;;;25.40;53.99;101586.59;5040346;28;20408;-68
2022/10/28 10:35:40;;;;;;;14.57;5.45;;;;;;;25.49;53.58;101588.22;5074456;28;20544;-68
2022/10/28 10:38:14;;;;;;;13.60;5.03;;;;;;;25.58;53.27;101587.09;5066212;28;20631;-67
2022/10/28 10:40:49;;;;;;;15.43;4.60;;;;;;;25.61;53.26;101594.97;5054619;28;20095;-68
2022/10/28 10:43:19;;;;;;;9.35;5.05;;;;;;;25.67;53.11;101582.38;5055447;28;20037;-68
2022/10/28 10:45:59;;;;;;;14.63;5.32;;;;;;;25.74;52.94;101576.97;5038650;28;20083;-67
2022/10/28 10:48:27;;;;;;;14.30;4.60;;;;;;;25.83;52.88;101570.31;5038388;28;20095;-68
2022/10/28 10:50:55;;;;;;;9.88;4.53;;;;;;;25.91;52.60;101568.31;5073592;28;20055;-68
2022/10/28 10:53:27;;;;;;;14.95;5.65;;;;;;;26.00;52.80;101574.56;5073207;28;20174;-68
2022/10/28 10:56:25;;;;;;;10.18;4.30;;;;;;;26.08;52.37;101570.88;5072837;28;20043;-68
2022/10/28 10:58:53;;;;;;;13.73;5.15;;;;;;;26.17;52.50;101573.31;5064185;28;20051;-67
2022/10/28 11:01:25;;;;;;;12.02;5.10;;;;;;;26.24;52.33;101574.25;5053755;28;20033;-65
2022/10/28 11:03:57;;;;;;;13.88;5.03;;;;;;;26.30;52.15;101569.88;5039640;28;20098;-66
2022/10/28 11:06:37;;;;;;;15.40;5.32;;;;;;;26.38;52.07;101561.53;5072128;28;20407;-66
2022/10/28 11:09:16;;;;;;;14.23;5.05;;;;;;;26.47;51.63;101557.59;5071988;28;20082;-66
2022/10/28 11:11:43;;;;;;;12.40;4.30;;;;;;;26.56;51.50;101555.56;5071561;28;20093;-66
2022/10/28 11:14:24;;;;;;;9.50;4.72;;;;;;;26.65;51.25;101559.03;5070583;28;20568;-66
2022/10/28 11:16:56;;;;;;;10.98;4.35;;;;;;;26.72;51.16;101554.44;5072003;28;20049;-66
2022/10/28 11:19:27;;;;;;;13.02;4.50;;;;;;;26.80;51.35;101546.91;5072047;28;20037;-66
2022/10/28 11:22:12;;;;;;;13.25;4.72;;;;;;;26.89;50.99;101558.66;5072408;28;20442;-65
2022/10/28 11:25:06;;;;;;;10.73;4.55;;;;;;;26.97;50.69;101543.88;5064801;28;20548;-66
2022/10/28 11:27:38;;;;;;;10.18;3.85;;;;;;;27.04;50.82;101539.28;5034637;28;20033;-66
2022/10/28 11:30:12;;;;;;;12.82;4.25;;;;;;;27.10;50.01;101535.75;5052127;28;20048;-66
2022/10/28 11:32:41;;;;;;;15.23;4.20;;;;;;;27.15;50.05;101534.09;5052551;28;20098;-66
2022/10/28 11:36:01;;;;;;;11.25;3.80;;;;;;;27.22;49.58;101531.38;5054892;28;20123;-66
2022/10/28 11:39:03;;;;;;;10.73;3.60;;;;;;;27.26;49.57;101531.81;5053991;28;20037;-66
2022/10/28 11:41:49;;;;;;;12.07;3.70;;;;;;;27.23;49.11;101514.63;5050142;28;20059;-66
2022/10/28 11:44:44;;;;;;;11.10;3.95;;;;;;;27.19;48.85;101509.72;5055971;28;20465;-67
2022/10/28 11:47:23;;;;;;;12.68;4.25;;;;;;;27.19;48.97;101526.25;5054125;28;20098;-66